createdAt,value
2022-11-14T00:03:34.809Z,3.23
2022-11-14T00:06:06.321Z,3.15
2022-11-14T00:08:34.164Z,3.16
2022-11-14T00:11:01.782Z,3.19
2022-11-14T00:13:29.477Z,3.08
2022-11-14T00:15:57.172Z,2.85
2022-11-14T00:18:25.568Z,2.93
2022-11-14T00:20:54.812Z,2.85
2022-11-14T00:23:22.866Z,2.69
2022-11-14T00:25:50.982Z,2.75
2022-11-14T00:28:18.613Z,2.69
2022-11-14T00:30:48.787Z,2.75
2022-11-14T00:33:20.264Z,2.68
2022-11-14T00:35:56.653Z,2.68
2022-11-14T00:38:24.735Z,2.58
2022-11-14T00:40:53.543Z,2.49
2022-11-14T00:43:21.182Z,2.36
2022-11-14T00:45:49.593Z,2.38
2022-11-14T00:48:17.279Z,2.33
2022-11-14T00:50:44.996Z,2.37
2022-11-14T00:53:14.538Z,2.41
2022-11-14T00:55:42.698Z,2.38
2022-11-14T00:58:10.479Z,2.47
2022-11-14T01:00:38.240Z,2.59
2022-11-14T01:03:06.049Z,2.58
2022-11-14T01:05:33.681Z,2.57
2022-11-14T01:08:01.338Z,2.60
2022-11-14T01:10:30.317Z,2.65
2022-11-14T01:12:57.942Z,2.73
2022-11-14T01:15:25.587Z,2.79
2022-11-14T01:17:53.305Z,2.80
2022-11-14T01:20:20.937Z,2.84
2022-11-14T01:22:48.541Z,2.88
2022-11-14T01:25:16.439Z,2.91
2022-11-14T01:27:45.497Z,2.99
2022-11-14T01:30:14.566Z,3.03
2022-11-14T01:32:42.355Z,3.05
2022-11-14T01:35:10.044Z,3.10
2022-11-14T01:37:37.693Z,3.11
2022-11-14T01:40:06.090Z,3.16
2022-11-14T01:42:33.746Z,3.20
2022-11-14T01:45:02.766Z,3.20
2022-11-14T01:47:33.017Z,3.19
2022-11-14T01:50:03.058Z,3.16
2022-11-14T01:52:34.437Z,3.14
2022-11-14T01:55:05.891Z,2.94
2022-11-14T01:57:38.107Z,2.97
2022-11-14T02:00:10.200Z,2.96
2022-11-14T02:02:38.447Z,2.99
2022-11-14T02:05:09.398Z,2.89
2022-11-14T02:07:39.881Z,2.73
2022-11-14T02:10:11.513Z,2.77
2022-11-14T02:12:39.457Z,2.80
2022-11-14T02:15:11.075Z,2.80
2022-11-14T02:17:38.843Z,2.73
2022-11-14T02:20:28.473Z,2.71
2022-11-14T02:22:56.182Z,2.65
2022-11-14T02:25:23.888Z,2.68
2022-11-14T02:27:52.500Z,2.59
2022-11-14T02:30:23.028Z,2.59
2022-11-14T02:33:10.627Z,2.52
2022-11-14T02:35:39.840Z,2.42
2022-11-14T02:38:07.708Z,2.29
2022-11-14T02:40:35.435Z,2.23
2022-11-14T02:43:03.080Z,2.17
2022-11-14T02:45:30.831Z,1.99
2022-11-14T02:47:58.674Z,1.85
2022-11-14T02:50:26.338Z,1.75
2022-11-14T02:52:55.731Z,1.61
2022-11-14T02:55:23.349Z,1.62
2022-11-14T02:57:50.967Z,1.68
2022-11-14T03:00:19.911Z,1.62
2022-11-14T03:02:47.560Z,1.49
2022-11-14T03:05:15.331Z,1.44
2022-11-14T03:07:42.989Z,1.35
2022-11-14T03:10:13.918Z,1.17
2022-11-14T03:12:41.654Z,1.19
2022-11-14T03:15:10.668Z,1.07
2022-11-14T03:17:38.317Z,0.99
2022-11-14T03:20:07.018Z,0.99
2022-11-14T03:22:34.694Z,0.90
2022-11-14T03:25:02.920Z,0.87
2022-11-14T03:27:31.964Z,0.81
2022-11-14T03:29:59.626Z,0.75
2022-11-14T03:32:27.293Z,0.74
2022-11-14T03:34:54.922Z,0.81
2022-11-14T03:37:22.563Z,0.84
2022-11-14T03:39:50.172Z,0.88
2022-11-14T03:42:17.919Z,0.97
2022-11-14T03:44:46.925Z,0.94
2022-11-14T03:47:14.549Z,0.72
2022-11-14T03:49:42.198Z,0.81
2022-11-14T03:52:09.840Z,0.80
2022-11-14T03:54:37.461Z,0.75
2022-11-14T03:57:05.152Z,0.80
2022-11-14T03:59:32.733Z,0.72
2022-11-14T04:02:01.693Z,0.73
2022-11-14T04:04:29.961Z,0.72
2022-11-14T04:06:57.604Z,0.78
2022-11-14T04:09:25.277Z,0.82
2022-11-14T04:11:52.873Z,0.79
2022-11-14T04:14:20.537Z,0.76
2022-11-14T04:16:48.186Z,0.74
2022-11-14T04:19:17.239Z,0.76
2022-11-14T04:21:44.879Z,0.77
2022-11-14T04:24:12.508Z,0.82
2022-11-14T04:26:40.137Z,0.83
2022-11-14T04:29:07.790Z,0.80
2022-11-14T04:31:35.428Z,0.75
2022-11-14T04:34:03.388Z,0.66
2022-11-14T04:36:32.477Z,0.73
2022-11-14T04:39:00.252Z,0.64
2022-11-14T04:41:27.934Z,0.74
2022-11-14T04:43:55.624Z,0.73
2022-11-14T04:46:23.415Z,0.73
2022-11-14T04:48:51.120Z,0.74
2022-11-14T04:51:18.882Z,0.70
2022-11-14T04:53:47.865Z,0.65
2022-11-14T04:56:15.526Z,0.59
2022-11-14T04:58:43.549Z,0.55
2022-11-14T05:01:12.624Z,0.48
2022-11-14T05:03:40.297Z,0.44
2022-11-14T05:06:08.789Z,0.39
2022-11-14T05:08:36.427Z,0.44
2022-11-14T05:11:05.565Z,0.44
2022-11-14T05:13:33.402Z,0.31
2022-11-14T05:16:01.471Z,0.32
2022-11-14T05:18:29.430Z,0.36
2022-11-14T05:21:00.033Z,0.34
2022-11-14T05:23:28.464Z,0.52
2022-11-14T05:26:03.759Z,0.36
2022-11-14T05:28:32.969Z,0.40
2022-11-14T05:31:05.064Z,0.24
2022-11-14T05:33:32.824Z,0.31
2022-11-14T05:36:03.870Z,0.11
2022-11-14T05:38:32.051Z,0.46
2022-11-14T05:41:00.282Z,0.51
2022-11-14T05:43:31.967Z,0.59
2022-11-14T05:46:00.686Z,0.63
2022-11-14T05:48:29.072Z,0.67
2022-11-14T05:50:57.382Z,0.58
2022-11-14T05:53:25.547Z,0.48
2022-11-14T05:55:53.333Z,0.43
2022-11-14T05:58:21.337Z,0.36
2022-11-14T06:00:54.125Z,0.39
2022-11-14T06:03:22.247Z,0.43
2022-11-14T06:05:49.850Z,0.42
2022-11-14T06:08:17.487Z,0.33
2022-11-14T06:10:45.163Z,0.27
2022-11-14T06:13:12.829Z,0.42
2022-11-14T06:15:40.471Z,0.39
2022-11-14T06:18:09.608Z,0.53
2022-11-14T06:20:37.739Z,0.59
2022-11-14T06:23:05.372Z,0.59
2022-11-14T06:25:33.042Z,0.52
2022-11-14T06:28:00.672Z,0.57
2022-11-14T06:30:28.313Z,0.59
2022-11-14T06:32:58.140Z,0.68
2022-11-14T06:35:27.294Z,0.74
2022-11-14T06:37:54.963Z,0.86
2022-11-14T06:40:22.710Z,0.86
2022-11-14T06:42:50.338Z,0.93
2022-11-14T06:45:18.016Z,0.91
2022-11-14T06:47:45.646Z,0.92
2022-11-14T06:50:13.386Z,0.95
2022-11-14T06:52:42.437Z,0.97
2022-11-14T06:55:10.338Z,1.02
2022-11-14T06:57:38.022Z,0.99
2022-11-14T07:00:06.642Z,1.05
2022-11-14T07:02:34.492Z,0.90
2022-11-14T07:05:02.163Z,1.22
2022-11-14T07:07:29.835Z,1.28
2022-11-14T07:09:58.869Z,1.34
2022-11-14T07:12:26.770Z,1.38
2022-11-14T07:14:54.456Z,1.35
2022-11-14T07:17:24.060Z,1.38
2022-11-14T07:19:53.587Z,1.37
2022-11-14T07:22:21.268Z,1.36
2022-11-14T07:24:48.930Z,1.35
2022-11-14T07:27:17.974Z,1.39
2022-11-14T07:29:45.628Z,1.36
2022-11-14T07:32:13.253Z,1.39
2022-11-14T07:34:40.925Z,1.48
2022-11-14T07:37:08.598Z,1.51
2022-11-14T07:39:36.198Z,1.51
2022-11-14T07:42:03.975Z,1.54
2022-11-14T07:44:32.934Z,1.65
2022-11-14T07:47:00.718Z,1.70
2022-11-14T07:49:28.520Z,1.76
2022-11-14T07:51:56.253Z,1.88
2022-11-14T07:54:23.939Z,1.81
2022-11-14T07:56:52.641Z,1.95
2022-11-14T07:59:20.279Z,2.01
2022-11-14T08:01:49.597Z,2.05
2022-11-14T08:04:17.265Z,2.09
2022-11-14T08:06:44.956Z,2.14
2022-11-14T08:09:12.620Z,2.20
2022-11-14T08:11:49.031Z,2.28
2022-11-14T08:14:16.896Z,2.39
2022-11-14T08:16:44.669Z,2.43
2022-11-14T08:19:13.677Z,2.60
2022-11-14T08:21:41.380Z,2.74
2022-11-14T08:24:09.785Z,2.86
2022-11-14T08:26:37.798Z,2.94
2022-11-14T08:29:05.613Z,3.03
2022-11-14T08:31:33.253Z,3.11
2022-11-14T08:34:00.887Z,3.16
2022-11-14T08:36:29.952Z,3.21
2022-11-14T08:39:01.591Z,3.36
2022-11-14T08:41:29.961Z,3.45
2022-11-14T08:43:57.637Z,3.57
2022-11-14T08:46:25.414Z,3.80
2022-11-14T08:48:53.028Z,3.94
2022-11-14T08:51:20.730Z,4.06
2022-11-14T08:53:51.425Z,4.33
2022-11-14T08:56:19.244Z,4.51
2022-11-14T08:58:47.559Z,4.77
2022-11-14T09:01:15.475Z,4.98
2022-11-14T09:03:43.277Z,5.26
2022-11-14T09:06:11.047Z,5.55
2022-11-14T09:08:38.721Z,5.70
2022-11-14T09:11:10.162Z,5.88
2022-11-14T09:13:38.086Z,6.00
2022-11-14T09:16:06.327Z,6.09
2022-11-14T09:18:34.253Z,6.42
2022-11-14T09:21:03.106Z,6.44
2022-11-14T09:23:31.543Z,6.41
2022-11-14T09:25:59.436Z,6.46
2022-11-14T09:28:28.499Z,6.52
2022-11-14T09:31:01.383Z,6.57
2022-11-14T09:33:29.467Z,6.62
2022-11-14T09:35:58.903Z,6.66
2022-11-14T09:38:27.732Z,6.76
2022-11-14T09:41:05.276Z,6.84
2022-11-14T09:43:55.385Z,6.91
2022-11-14T09:46:27.094Z,6.96
2022-11-14T09:48:55.047Z,6.93
2022-11-14T09:51:25.237Z,6.97
2022-11-14T09:53:57.372Z,7.06
2022-11-14T09:56:27.030Z,7.05
2022-11-14T09:58:57.029Z,6.94
2022-11-14T10:01:36.321Z,7.02
2022-11-14T10:04:15.469Z,7.01
2022-11-14T10:06:55.041Z,7.07
2022-11-14T10:09:45.157Z,7.14
2022-11-14T10:12:17.857Z,7.14
2022-11-14T10:15:29.778Z,7.06
2022-11-14T10:18:22.606Z,7.03
2022-11-14T10:20:55.591Z,7.08
2022-11-14T10:23:36.233Z,6.89
2022-11-14T10:26:13.982Z,6.99
2022-11-14T10:28:55.980Z,7.10
2022-11-14T10:31:32.275Z,7.10
2022-11-14T10:34:07.126Z,7.13
2022-11-14T10:36:48.371Z,7.12
2022-11-14T10:39:22.190Z,7.13
2022-11-14T10:41:59.934Z,7.17
2022-11-14T10:44:35.003Z,7.26
2022-11-14T10:47:07.910Z,7.31
2022-11-14T10:49:37.586Z,7.15
2022-11-14T10:52:10.862Z,7.27
2022-11-14T10:54:43.490Z,7.27
2022-11-14T10:57:17.046Z,7.14
2022-11-14T10:59:44.880Z,7.20
2022-11-14T11:02:14.622Z,7.31
2022-11-14T11:04:43.495Z,7.29
2022-11-14T11:07:41.183Z,7.27
2022-11-14T11:10:38.450Z,7.33
2022-11-14T11:13:06.658Z,7.33
2022-11-14T11:15:41.626Z,7.48
2022-11-14T11:18:26.654Z,7.51
2022-11-14T11:21:07.890Z,7.53
2022-11-14T11:23:36.181Z,7.71
2022-11-14T11:26:07.883Z,7.83
2022-11-14T11:28:36.886Z,7.95
2022-11-14T11:31:06.679Z,8.04
2022-11-14T11:33:37.104Z,7.93
2022-11-14T11:36:07.161Z,8.11
2022-11-14T11:38:36.034Z,8.33
2022-11-14T11:41:20.714Z,8.48
2022-11-14T11:44:03.821Z,8.70
2022-11-14T11:46:47.884Z,8.92
2022-11-14T11:49:20.424Z,9.01
2022-11-14T11:51:48.988Z,9.19
2022-11-14T11:54:19.631Z,9.03
2022-11-14T11:56:53.919Z,9.23
2022-11-14T11:59:33.393Z,9.18
2022-11-14T12:02:03.091Z,9.06
2022-11-14T12:04:32.514Z,9.07
2022-11-14T12:07:15.851Z,9.01
2022-11-14T12:10:09.233Z,9.03
2022-11-14T12:12:53.523Z,9.11
2022-11-14T12:15:29.759Z,9.02
2022-11-14T12:18:19.907Z,9.04
2022-11-14T12:21:04.907Z,9.03
2022-11-14T12:23:53.397Z,9.16
2022-11-14T12:26:56.449Z,9.09
2022-11-14T12:29:49.674Z,9.14
2022-11-14T12:32:28.708Z,9.32
2022-11-14T12:34:56.729Z,9.49
2022-11-14T12:37:34.060Z,9.49
2022-11-14T12:40:04.620Z,9.59
2022-11-14T12:42:33.218Z,9.50
2022-11-14T12:45:01.113Z,9.59
2022-11-14T12:47:29.873Z,9.44
2022-11-14T12:50:03.464Z,9.44
2022-11-14T12:52:45.790Z,9.41
2022-11-14T12:55:50.895Z,9.27
2022-11-14T12:58:27.244Z,9.34
2022-11-14T13:01:09.723Z,9.24
2022-11-14T13:03:50.717Z,9.15
2022-11-14T13:06:24.001Z,9.13
2022-11-14T13:09:10.540Z,9.18
2022-11-14T13:12:02.031Z,9.18
2022-11-14T13:14:48.828Z,9.12
2022-11-14T13:17:45.723Z,9.04
2022-11-14T13:20:47.265Z,9.17
2022-11-14T13:23:50.145Z,9.20
2022-11-14T13:26:38.427Z,9.30
2022-11-14T13:29:06.065Z,9.30
2022-11-14T13:31:50.330Z,9.31
2022-11-14T13:34:37.366Z,9.34
2022-11-14T13:37:20.777Z,9.33
2022-11-14T13:40:00.869Z,9.42
2022-11-14T13:42:48.841Z,9.49
2022-11-14T13:45:32.702Z,9.48
2022-11-14T13:48:24.505Z,9.38
2022-11-14T13:50:56.264Z,9.41
2022-11-14T13:53:27.219Z,9.50
2022-11-14T13:56:01.101Z,9.50
2022-11-14T13:58:43.520Z,9.38
2022-11-14T14:01:24.434Z,9.42
2022-11-14T14:04:09.898Z,9.52
2022-11-14T14:06:51.149Z,9.30
2022-11-14T14:09:26.802Z,9.43
2022-11-14T14:12:08.677Z,9.48
2022-11-14T14:14:57.501Z,9.43
2022-11-14T14:17:34.018Z,9.45
2022-11-14T14:20:17.260Z,9.58
2022-11-14T14:22:52.795Z,9.67
2022-11-14T14:25:28.394Z,9.66
2022-11-14T14:28:06.946Z,9.54
2022-11-14T14:30:36.005Z,9.75
2022-11-14T14:33:12.838Z,9.77
2022-11-14T14:35:49.851Z,9.78
2022-11-14T14:38:24.090Z,9.73
2022-11-14T14:40:51.869Z,9.78
2022-11-14T14:43:26.659Z,9.67
2022-11-14T14:45:56.442Z,9.66
2022-11-14T14:48:27.898Z,9.58
2022-11-14T14:50:58.039Z,9.47
2022-11-14T14:53:27.167Z,9.47
2022-11-14T14:55:57.166Z,9.19
2022-11-14T14:58:27.842Z,9.30
2022-11-14T15:01:00.359Z,9.32
2022-11-14T15:03:36.737Z,9.33
2022-11-14T15:06:07.632Z,9.27
2022-11-14T15:08:39.543Z,9.24
2022-11-14T15:11:08.302Z,9.23
2022-11-14T15:13:38.678Z,9.10
2022-11-14T15:16:09.641Z,9.08
2022-11-14T15:18:38.265Z,8.81
2022-11-14T15:21:11.585Z,8.80
2022-11-14T15:23:40.086Z,8.73
2022-11-14T15:26:15.580Z,8.86
2022-11-14T15:28:43.717Z,8.79
2022-11-14T15:31:20.955Z,8.76
2022-11-14T15:34:02.899Z,8.80
2022-11-14T15:36:30.521Z,8.70
2022-11-14T15:39:03.849Z,8.67
2022-11-14T15:41:32.752Z,8.66
2022-11-14T15:44:02.896Z,8.52
2022-11-14T15:46:42.825Z,8.51
2022-11-14T15:49:18.926Z,8.59
2022-11-14T15:51:49.474Z,8.64
2022-11-14T15:54:28.942Z,8.60
2022-11-14T15:56:58.736Z,8.67
2022-11-14T15:59:27.457Z,8.60
2022-11-14T16:02:03.040Z,8.60
2022-11-14T16:04:34.569Z,8.58
2022-11-14T16:07:02.353Z,8.55
2022-11-14T16:09:30.041Z,8.56
2022-11-14T16:11:57.929Z,8.34
2022-11-14T16:14:25.504Z,8.43
2022-11-14T16:16:53.157Z,8.48
2022-11-14T16:19:22.974Z,8.36
2022-11-14T16:21:50.733Z,8.45
2022-11-14T16:24:19.917Z,8.30
2022-11-14T16:26:48.739Z,8.41
2022-11-14T16:29:16.945Z,8.43
2022-11-14T16:31:44.685Z,8.44
2022-11-14T16:34:17.777Z,8.36
2022-11-14T16:36:48.469Z,8.40
2022-11-14T16:39:16.491Z,8.42
2022-11-14T16:41:44.267Z,8.45
2022-11-14T16:44:16.234Z,8.46
2022-11-14T16:46:44.373Z,8.37
2022-11-14T16:49:14.440Z,8.40
2022-11-14T16:51:50.538Z,8.41
2022-11-14T16:54:21.079Z,8.36
2022-11-14T16:56:49.451Z,8.23
2022-11-14T16:59:17.143Z,8.25
2022-11-14T17:01:46.000Z,8.31
2022-11-14T17:04:13.709Z,8.32
2022-11-14T17:06:41.430Z,8.39
2022-11-14T17:09:09.238Z,8.36
2022-11-14T17:11:38.262Z,8.30
2022-11-14T17:14:05.964Z,8.26
2022-11-14T17:16:33.659Z,8.18
2022-11-14T17:19:01.353Z,8.22
2022-11-14T17:21:29.551Z,8.27
2022-11-14T17:24:00.323Z,8.28
2022-11-14T17:26:28.629Z,8.13
2022-11-14T17:28:58.085Z,8.20
2022-11-14T17:31:25.805Z,8.15
2022-11-14T17:33:54.888Z,8.19
2022-11-14T17:36:23.901Z,8.19
2022-11-14T17:38:51.560Z,8.17
2022-11-14T17:41:19.373Z,8.22
2022-11-14T17:43:47.194Z,8.16
2022-11-14T17:46:17.119Z,8.10
2022-11-14T17:48:45.310Z,8.10
2022-11-14T17:51:15.098Z,8.13
2022-11-14T17:53:44.161Z,8.08
2022-11-14T17:56:15.114Z,8.09
2022-11-14T17:58:43.013Z,8.05
2022-11-14T18:01:12.076Z,8.09
2022-11-14T18:03:41.321Z,8.08
2022-11-14T18:06:10.387Z,8.19
2022-11-14T18:08:38.450Z,8.16
2022-11-14T18:11:08.293Z,8.15
2022-11-14T18:13:36.151Z,8.12
2022-11-14T18:16:04.668Z,8.10
2022-11-14T18:18:33.068Z,8.08
2022-11-14T18:21:07.691Z,8.09
2022-11-14T18:23:36.250Z,8.03
2022-11-14T18:26:10.022Z,8.08
2022-11-14T18:28:37.718Z,8.08
2022-11-14T18:31:07.473Z,8.07
2022-11-14T18:33:35.700Z,8.02
2022-11-14T18:36:06.543Z,8.06
2022-11-14T18:38:34.285Z,8.14
2022-11-14T18:41:03.390Z,7.99
2022-11-14T18:43:33.238Z,8.04
2022-11-14T18:46:06.072Z,8.02
2022-11-14T18:48:34.173Z,8.05
2022-11-14T18:51:04.439Z,8.05
2022-11-14T18:53:33.348Z,8.11
2022-11-14T18:56:04.624Z,8.09
2022-11-14T18:58:32.337Z,8.12
2022-11-14T19:01:00.218Z,8.12
2022-11-14T19:03:29.053Z,8.04
2022-11-14T19:05:56.944Z,8.15
2022-11-14T19:08:25.989Z,7.85
2022-11-14T19:10:53.649Z,8.09
2022-11-14T19:13:25.208Z,7.99
2022-11-14T19:15:52.893Z,8.06
2022-11-14T19:18:20.539Z,7.98
2022-11-14T19:20:57.415Z,7.90
2022-11-14T19:23:26.480Z,7.90
2022-11-14T19:25:59.471Z,7.95
2022-11-14T19:28:27.280Z,7.88
2022-11-14T19:30:54.925Z,7.94
2022-11-14T19:33:22.541Z,7.92
2022-11-14T19:35:50.150Z,7.97
2022-11-14T19:38:17.851Z,7.92
2022-11-14T19:40:50.809Z,7.87
2022-11-14T19:43:18.880Z,7.90
2022-11-14T19:45:46.700Z,7.88
2022-11-14T19:48:14.486Z,7.87
2022-11-14T19:50:42.178Z,7.82
2022-11-14T19:53:10.122Z,7.79
2022-11-14T19:55:37.829Z,7.77
2022-11-14T19:58:06.833Z,7.73
2022-11-14T20:00:34.750Z,7.67
2022-11-14T20:03:02.430Z,7.56
2022-11-14T20:05:30.269Z,7.40
2022-11-14T20:07:58.076Z,7.32
2022-11-14T20:10:25.844Z,7.45
2022-11-14T20:12:53.670Z,7.34
2022-11-14T20:15:22.802Z,7.20
2022-11-14T20:17:51.333Z,7.31
2022-11-14T20:20:19.282Z,7.27
2022-11-14T20:22:46.954Z,7.25
2022-11-14T20:25:16.268Z,7.25
2022-11-14T20:27:43.999Z,7.21
2022-11-14T20:30:12.454Z,7.19
2022-11-14T20:32:41.630Z,7.07
2022-11-14T20:35:10.194Z,7.13
2022-11-14T20:37:37.992Z,7.09
2022-11-14T20:40:06.849Z,6.97
2022-11-14T20:42:34.641Z,6.86
2022-11-14T20:45:02.945Z,6.69
2022-11-14T20:47:30.890Z,6.68
2022-11-14T20:50:00.000Z,6.62
2022-11-14T20:52:27.812Z,6.68
2022-11-14T20:54:55.772Z,6.63
2022-11-14T20:57:23.583Z,6.67
2022-11-14T20:59:51.600Z,6.68
2022-11-14T21:02:19.460Z,6.62
2022-11-14T21:04:47.246Z,6.70
2022-11-14T21:07:16.418Z,6.81
2022-11-14T21:09:44.052Z,6.83
2022-11-14T21:12:12.268Z,6.82
2022-11-14T21:14:39.980Z,6.74
2022-11-14T21:17:07.695Z,6.81
2022-11-14T21:19:35.346Z,6.81
2022-11-14T21:22:03.043Z,6.80
2022-11-14T21:24:34.503Z,6.80
2022-11-14T21:27:06.681Z,6.75
2022-11-14T21:29:34.273Z,6.75
2022-11-14T21:32:01.900Z,6.77
2022-11-14T21:34:29.535Z,6.74
2022-11-14T21:36:58.052Z,6.78
2022-11-14T21:39:25.683Z,6.86
2022-11-14T21:41:55.189Z,6.86
2022-11-14T21:44:23.258Z,6.96
2022-11-14T21:46:50.950Z,6.97
2022-11-14T21:49:18.748Z,7.07
2022-11-14T21:51:47.096Z,7.08
2022-11-14T21:54:14.877Z,7.09
2022-11-14T21:56:42.456Z,7.13
2022-11-14T21:59:16.818Z,7.13
2022-11-14T22:02:04.645Z,7.15
2022-11-14T22:04:33.053Z,7.24
2022-11-14T22:07:02.314Z,7.30
2022-11-14T22:09:30.890Z,7.31
2022-11-14T22:11:58.778Z,7.36
2022-11-14T22:14:29.245Z,7.36
2022-11-14T22:16:57.995Z,7.40
2022-11-14T22:19:25.712Z,7.41
2022-11-14T22:21:54.293Z,7.54
2022-11-14T22:24:22.152Z,7.57
2022-11-14T22:26:49.768Z,7.54
2022-11-14T22:29:17.506Z,7.56
2022-11-14T22:31:46.663Z,7.61
2022-11-14T22:34:14.405Z,7.62
2022-11-14T22:36:42.057Z,7.64
2022-11-14T22:39:09.686Z,7.71
2022-11-14T22:41:37.901Z,7.68
2022-11-14T22:44:05.829Z,7.77
2022-11-14T22:46:33.499Z,7.82
2022-11-14T22:49:03.743Z,7.89
2022-11-14T22:51:31.760Z,7.86
2022-11-14T22:53:59.956Z,7.89
2022-11-14T22:56:29.931Z,7.89
2022-11-14T22:59:00.185Z,7.92
2022-11-14T23:01:29.576Z,7.99
2022-11-14T23:03:59.420Z,7.87
2022-11-14T23:06:29.806Z,8.00
2022-11-14T23:08:57.641Z,7.78
2022-11-14T23:11:27.740Z,8.01
2022-11-14T23:13:58.211Z,8.02
2022-11-14T23:16:28.722Z,8.07
2022-11-14T23:18:57.894Z,8.13
2022-11-14T23:21:28.752Z,8.12
2022-11-14T23:23:57.719Z,8.13
2022-11-14T23:26:26.592Z,8.13
2022-11-14T23:28:55.285Z,8.14
2022-11-14T23:31:23.410Z,8.22
2022-11-14T23:33:52.344Z,8.27
2022-11-14T23:36:20.171Z,8.32
2022-11-14T23:38:49.315Z,8.35
2022-11-14T23:41:18.555Z,8.34
2022-11-14T23:43:46.667Z,8.37
2022-11-14T23:46:14.425Z,8.39
2022-11-14T23:48:42.539Z,8.48
2022-11-14T23:51:10.601Z,8.51
2022-11-14T23:53:38.248Z,8.56
2022-11-14T23:56:07.826Z,8.66
2022-11-14T23:58:35.452Z,8.80
